createdAt,value
2018-11-14T00:01:59.177Z,15.63
2018-11-14T00:06:07.474Z,8.07
2018-11-14T00:10:15.845Z,7.90
2018-11-14T00:14:24.076Z,7.47
2018-11-14T00:18:32.369Z,8.60
2018-11-14T00:22:41.908Z,10.23
2018-11-14T00:26:50.459Z,18.13
2018-11-14T00:30:58.677Z,11.70
2018-11-14T00:35:06.789Z,9.33
2018-11-14T00:39:15.073Z,8.37
2018-11-14T00:43:23.376Z,12.07
2018-11-14T00:47:31.673Z,9.87
2018-11-14T00:51:39.985Z,8.80
2018-11-14T00:55:48.444Z,11.60
2018-11-14T00:59:56.792Z,9.97
2018-11-14T01:04:05.101Z,12.37
2018-11-14T01:08:13.407Z,10.93
2018-11-14T01:12:21.693Z,11.77
2018-11-14T01:16:30.001Z,9.95
2018-11-14T01:20:38.320Z,10.87
2018-11-14T01:24:46.625Z,10.13
2018-11-14T01:28:54.931Z,7.58
2018-11-14T01:33:03.263Z,8.70
2018-11-14T01:37:11.561Z,7.70
2018-11-14T01:41:19.864Z,9.40
2018-11-14T01:45:28.156Z,9.93
2018-11-14T01:49:36.466Z,13.97
2018-11-14T01:53:44.761Z,12.33
2018-11-14T01:57:53.060Z,9.40
2018-11-14T02:02:01.328Z,10.20
2018-11-14T02:06:09.625Z,10.17
2018-11-14T02:10:19.125Z,7.85
2018-11-14T02:14:27.421Z,12.20
2018-11-14T02:18:35.678Z,12.43
2018-11-14T02:22:44.558Z,11.10
2018-11-14T02:26:52.825Z,11.10
2018-11-14T02:31:01.714Z,6.60
2018-11-14T02:35:10.403Z,9.20
2018-11-14T02:39:18.659Z,9.83
2018-11-14T02:43:26.975Z,7.97
2018-11-14T02:47:35.269Z,10.30
2018-11-14T02:51:43.525Z,10.23
2018-11-14T02:56:04.519Z,11.20
2018-11-14T03:00:14.893Z,9.20
2018-11-14T03:04:23.162Z,8.87
2018-11-14T03:08:31.391Z,8.90
2018-11-14T03:12:39.817Z,9.70
2018-11-14T03:16:48.067Z,15.87
2018-11-14T03:20:56.123Z,13.80
2018-11-14T03:25:04.574Z,12.80
2018-11-14T03:29:13.402Z,12.13
2018-11-14T03:33:21.673Z,8.27
2018-11-14T03:37:29.949Z,8.10
2018-11-14T03:41:38.287Z,13.77
2018-11-14T03:45:46.540Z,11.30
2018-11-14T03:49:54.872Z,10.80
2018-11-14T03:54:03.160Z,10.90
2018-11-14T03:58:11.648Z,10.50
2018-11-14T04:02:20.018Z,10.30
2018-11-14T04:06:28.332Z,7.47
2018-11-14T04:10:36.631Z,14.90
2018-11-14T04:14:44.948Z,12.33
2018-11-14T04:18:53.199Z,11.00
2018-11-14T04:23:01.488Z,10.03
2018-11-14T04:27:09.763Z,18.33
2018-11-14T04:31:18.044Z,11.05
2018-11-14T04:35:26.329Z,11.50
2018-11-14T04:39:34.619Z,11.53
2018-11-14T04:43:43.126Z,13.60
2018-11-14T04:47:51.399Z,17.07
2018-11-14T04:51:59.932Z,11.07
2018-11-14T04:56:08.213Z,10.50
2018-11-14T05:00:17.390Z,10.70
2018-11-14T05:04:26.008Z,12.40
2018-11-14T05:08:34.324Z,12.30
2018-11-14T05:12:42.756Z,11.80
2018-11-14T05:16:51.014Z,10.47
2018-11-14T05:20:59.333Z,11.87
2018-11-14T05:25:07.656Z,11.40
2018-11-14T05:29:16.588Z,12.83
2018-11-14T05:33:24.876Z,14.13
2018-11-14T05:37:33.149Z,8.97
2018-11-14T05:41:41.407Z,8.90
2018-11-14T05:45:49.718Z,14.10
2018-11-14T05:49:57.976Z,7.80
2018-11-14T05:54:06.308Z,14.40
2018-11-14T05:58:14.577Z,12.70
2018-11-14T06:02:22.849Z,9.67
2018-11-14T06:06:31.216Z,13.20
2018-11-14T06:10:40.308Z,13.00
2018-11-14T06:14:48.689Z,11.90
2018-11-14T06:18:56.990Z,12.43
2018-11-14T06:23:05.208Z,13.33
2018-11-14T06:27:13.963Z,14.10
2018-11-14T06:31:22.193Z,12.20
2018-11-14T06:35:30.543Z,10.20
2018-11-14T06:39:38.803Z,11.37
2018-11-14T06:43:47.076Z,15.57
2018-11-14T06:47:56.731Z,14.20
2018-11-14T06:52:05.085Z,11.43
2018-11-14T06:56:13.375Z,9.13
2018-11-14T07:00:27.013Z,13.77
2018-11-14T07:04:35.288Z,11.80
2018-11-14T07:08:43.608Z,14.40
2018-11-14T07:12:53.053Z,13.97
2018-11-14T07:17:01.304Z,13.17
2018-11-14T07:21:09.555Z,12.20
2018-11-14T07:25:17.832Z,16.10
2018-11-14T07:29:26.511Z,12.63
2018-11-14T07:33:34.772Z,15.70
2018-11-14T07:37:45.351Z,11.20
2018-11-14T07:41:54.179Z,14.70
2018-11-14T07:46:02.501Z,10.63
2018-11-14T07:50:15.125Z,15.83
2018-11-14T07:54:23.397Z,12.33
2018-11-14T07:58:31.924Z,14.10
2018-11-14T08:02:40.249Z,10.90
2018-11-14T08:06:48.527Z,12.50
2018-11-14T08:10:56.811Z,15.13
2018-11-14T08:15:05.324Z,16.77
2018-11-14T08:19:13.592Z,15.97
2018-11-14T08:23:21.879Z,12.97
2018-11-14T08:27:30.124Z,12.50
2018-11-14T08:31:38.445Z,11.37
2018-11-14T08:35:46.793Z,12.67
2018-11-14T08:39:55.072Z,15.03
2018-11-14T08:44:03.436Z,15.47
2018-11-14T08:48:11.748Z,17.63
2018-11-14T08:52:20.080Z,20.73
2018-11-14T08:56:28.375Z,21.00
2018-11-14T09:00:36.788Z,16.00
2018-11-14T09:04:45.117Z,20.77
2018-11-14T09:09:03.400Z,31.33
2018-11-14T09:13:14.671Z,14.23
2018-11-14T09:17:22.873Z,16.93
2018-11-14T09:21:31.206Z,19.97
2018-11-14T09:25:39.509Z,18.10
2018-11-14T09:29:47.766Z,20.20
2018-11-14T09:33:56.068Z,18.50
2018-11-14T09:38:04.360Z,19.12
2018-11-14T09:42:12.690Z,19.57
2018-11-14T09:46:21.113Z,14.70
2018-11-14T09:50:30.825Z,22.73
2018-11-14T09:54:39.125Z,18.30
2018-11-14T09:58:47.488Z,16.15
2018-11-14T10:02:59.829Z,24.73
2018-11-14T10:07:08.083Z,25.23
2018-11-14T10:11:16.423Z,24.53
2018-11-14T10:15:25.074Z,17.90
2018-11-14T10:19:33.394Z,22.17
2018-11-14T10:23:41.666Z,16.87
2018-11-14T10:27:50.446Z,28.37
2018-11-14T10:31:59.260Z,26.67
2018-11-14T10:36:07.512Z,26.43
2018-11-14T10:40:19.362Z,23.80
2018-11-14T10:44:27.609Z,35.53
2018-11-14T10:48:35.980Z,26.87
2018-11-14T10:52:44.241Z,31.53
2018-11-14T10:56:52.523Z,19.43
2018-11-14T11:01:06.063Z,24.27
2018-11-14T11:05:19.662Z,19.73
2018-11-14T11:09:33.266Z,24.00
2018-11-14T11:14:12.905Z,18.93
2018-11-14T11:18:25.141Z,27.57
2018-11-14T11:22:33.419Z,22.02
2018-11-14T11:26:41.716Z,29.37
2018-11-14T11:30:50.079Z,27.30
2018-11-14T11:34:58.301Z,21.70
2018-11-14T11:39:08.817Z,16.30
2018-11-14T11:43:17.141Z,19.17
2018-11-14T11:47:25.449Z,19.52
2018-11-14T11:51:33.994Z,21.83
2018-11-14T11:55:42.307Z,19.90
2018-11-14T11:59:50.616Z,21.33
2018-11-14T12:03:58.868Z,26.83
2018-11-14T12:08:07.142Z,21.70
2018-11-14T12:12:15.416Z,24.23
2018-11-14T12:16:23.716Z,21.13
2018-11-14T12:20:31.991Z,23.80
2018-11-14T12:24:40.254Z,21.60
2018-11-14T12:28:48.315Z,30.92
2018-11-14T12:32:56.571Z,22.80
2018-11-14T12:37:05.056Z,28.00
2018-11-14T12:41:13.633Z,24.73
2018-11-14T12:45:21.935Z,27.10
2018-11-14T12:49:30.560Z,23.53
2018-11-14T12:53:38.868Z,25.87
2018-11-14T12:57:47.199Z,24.77
2018-11-14T13:01:55.555Z,24.77
2018-11-14T13:06:03.972Z,24.10
2018-11-14T13:10:13.582Z,28.60
2018-11-14T13:14:21.884Z,28.60
2018-11-14T13:18:30.195Z,28.33
2018-11-14T13:22:38.647Z,30.93
2018-11-14T13:26:47.081Z,28.73
2018-11-14T13:30:55.502Z,28.30
2018-11-14T13:35:04.369Z,27.97
2018-11-14T13:39:12.602Z,32.43
2018-11-14T13:43:21.159Z,28.23
2018-11-14T13:47:29.396Z,26.20
2018-11-14T13:51:37.681Z,25.07
2018-11-14T13:55:45.959Z,31.60
2018-11-14T13:59:54.296Z,29.60
2018-11-14T14:04:02.566Z,39.97
2018-11-14T14:08:10.844Z,27.67
2018-11-14T14:12:19.345Z,27.17
2018-11-14T14:16:27.771Z,24.90
2018-11-14T14:20:36.024Z,20.97
2018-11-14T14:24:44.404Z,24.77
2018-11-14T14:28:52.780Z,25.12
2018-11-14T14:33:01.077Z,21.27
2018-11-14T14:37:09.372Z,20.63
2018-11-14T14:41:17.806Z,17.30
2018-11-14T14:45:27.031Z,17.90
2018-11-14T14:49:35.336Z,20.30
2018-11-14T14:53:43.632Z,18.15
2018-11-14T14:57:52.107Z,16.83
2018-11-14T15:02:00.577Z,16.20
2018-11-14T15:06:08.915Z,21.10
2018-11-14T15:10:18.518Z,14.33
2018-11-14T15:14:26.980Z,18.53
2018-11-14T15:18:35.428Z,11.53
2018-11-14T15:22:43.895Z,14.90
2018-11-14T15:26:52.180Z,15.17
2018-11-14T15:31:00.442Z,16.37
2018-11-14T15:35:09.724Z,12.83
2018-11-14T15:39:18.006Z,11.43
2018-11-14T15:43:26.269Z,12.50
2018-11-14T15:47:35.145Z,16.10
2018-11-14T15:51:43.619Z,12.70
2018-11-14T15:55:51.884Z,15.53
2018-11-14T16:00:00.151Z,16.30
2018-11-14T16:04:08.489Z,15.80
2018-11-14T16:08:16.757Z,14.63
2018-11-14T16:12:25.120Z,12.07
2018-11-14T16:16:33.091Z,13.40
2018-11-14T16:20:41.397Z,11.27
2018-11-14T16:24:49.716Z,13.20
2018-11-14T16:28:57.984Z,11.50
2018-11-14T16:33:07.468Z,10.60
2018-11-14T16:37:15.774Z,15.03
2018-11-14T16:41:24.054Z,18.33
2018-11-14T16:45:32.298Z,14.87
2018-11-14T16:49:40.680Z,11.07
2018-11-14T16:53:48.979Z,11.63
2018-11-14T16:57:57.588Z,12.47
2018-11-14T17:02:05.895Z,12.67
2018-11-14T17:06:14.167Z,12.20
2018-11-14T17:10:23.134Z,15.10
2018-11-14T17:14:31.426Z,12.50
2018-11-14T17:18:41.174Z,12.43
2018-11-14T17:22:50.632Z,15.73
2018-11-14T17:26:58.884Z,14.53
2018-11-14T17:31:07.292Z,10.53
2018-11-14T17:35:16.144Z,12.57
2018-11-14T17:39:24.444Z,11.40
2018-11-14T17:43:32.758Z,14.67
2018-11-14T17:47:41.153Z,10.40
2018-11-14T17:51:49.505Z,11.47
2018-11-14T17:55:57.873Z,13.13
2018-11-14T18:00:08.284Z,14.53
2018-11-14T18:04:16.577Z,12.70
2018-11-14T18:08:25.012Z,10.73
2018-11-14T18:12:33.283Z,12.60
2018-11-14T18:16:41.569Z,12.97
2018-11-14T18:20:50.014Z,9.73
2018-11-14T18:24:58.307Z,15.10
2018-11-14T18:29:06.912Z,9.77
2018-11-14T18:33:15.466Z,9.10
2018-11-14T18:37:23.729Z,9.07
2018-11-14T18:41:32.016Z,12.33
2018-11-14T18:45:40.391Z,12.43
2018-11-14T18:49:48.583Z,8.47
2018-11-14T18:53:56.914Z,11.43
2018-11-14T18:58:05.973Z,10.80
2018-11-14T19:02:14.212Z,7.80
2018-11-14T19:06:27.928Z,7.77
2018-11-14T19:10:36.198Z,8.77
2018-11-14T19:14:49.134Z,11.03
2018-11-14T19:18:57.650Z,9.43
2018-11-14T19:23:06.392Z,9.17
2018-11-14T19:27:15.681Z,12.13
2018-11-14T19:31:23.947Z,12.20
2018-11-14T19:35:32.289Z,7.80
2018-11-14T19:39:40.902Z,7.40
2018-11-14T19:43:49.456Z,7.60
2018-11-14T19:47:57.704Z,8.57
2018-11-14T19:52:06.025Z,10.13
2018-11-14T19:56:14.300Z,9.80
2018-11-14T20:00:24.760Z,7.57
2018-11-14T20:04:33.010Z,12.10
2018-11-14T20:08:41.307Z,9.30
2018-11-14T20:12:50.596Z,10.30
2018-11-14T20:16:58.944Z,13.97
2018-11-14T20:21:07.238Z,13.87
2018-11-14T20:25:15.516Z,10.17
2018-11-14T20:29:23.799Z,14.40
2018-11-14T20:33:32.154Z,10.97
2018-11-14T20:37:40.824Z,9.03
2018-11-14T20:41:49.235Z,12.13
2018-11-14T20:45:57.522Z,9.77
2018-11-14T20:50:08.665Z,10.10
2018-11-14T20:54:17.126Z,14.70
2018-11-14T20:58:25.410Z,13.93
2018-11-14T21:02:33.707Z,7.75
2018-11-14T21:06:43.126Z,17.50
2018-11-14T21:10:51.519Z,14.27
2018-11-14T21:14:59.813Z,8.67
2018-11-14T21:19:08.142Z,10.80
2018-11-14T21:23:16.482Z,7.90
2018-11-14T21:27:24.768Z,11.60
2018-11-14T21:31:33.020Z,9.30
2018-11-14T21:35:41.305Z,16.93
2018-11-14T21:39:49.890Z,10.40
2018-11-14T21:43:58.113Z,14.13
2018-11-14T21:48:12.168Z,14.90
2018-11-14T21:52:20.420Z,15.10
2018-11-14T21:56:28.783Z,16.47
2018-11-14T22:00:39.009Z,12.43
2018-11-14T22:04:47.333Z,14.10
2018-11-14T22:08:55.573Z,13.07
2018-11-14T22:13:03.826Z,11.43
2018-11-14T22:17:12.078Z,13.53
2018-11-14T22:21:20.250Z,14.87
2018-11-14T22:25:29.401Z,11.13
2018-11-14T22:29:38.045Z,14.63
2018-11-14T22:33:46.291Z,14.73
2018-11-14T22:37:54.570Z,16.40
2018-11-14T22:42:02.840Z,18.13
2018-11-14T22:46:11.147Z,12.77
2018-11-14T22:50:20.888Z,14.67
2018-11-14T22:54:29.165Z,19.57
2018-11-14T22:58:37.454Z,16.07
2018-11-14T23:02:45.800Z,21.90
2018-11-14T23:06:54.200Z,20.93
2018-11-14T23:11:02.718Z,16.80
2018-11-14T23:15:10.983Z,19.60
2018-11-14T23:19:19.680Z,19.37
2018-11-14T23:23:28.097Z,23.03
2018-11-14T23:27:36.459Z,23.07
2018-11-14T23:31:45.772Z,18.90
2018-11-14T23:35:54.072Z,21.67
2018-11-14T23:40:02.369Z,22.23
2018-11-14T23:44:11.139Z,23.07
2018-11-14T23:48:19.519Z,25.00
2018-11-14T23:52:27.847Z,22.93
2018-11-14T23:56:36.209Z,22.83
